Time;durP1;ratioP1;P1;durP2;ratioP2;P2;SDS_P1;SDS_P2;PMS_P1;PMS_P2;Temp;Humidity;BMP_temperature;BMP_pressure;BME280_temperature;BME280_humidity;BME280_pressure;Samples;Min_cycle;Max_cycle;Signal;HPM_P1;HPM_P2
2024/04/04 00:01:10;;;;;;;;;;;11.60;33.30;;;;;;5052058;28;19904;-71
2024/04/04 00:03:38;;;;;;;;;;;11.60;33.40;;;;;;5052327;28;19905;-71
2024/04/04 00:06:07;;;;;;;;;;;11.70;32.40;;;;;;5055951;28;19904;-70
2024/04/04 00:08:32;;;;;;;;;;;11.70;31.10;;;;;;5055753;28;19909;-71
2024/04/04 00:11:10;;;;;;;;;;;11.70;30.50;;;;;;5055975;28;20003;-71
2024/04/04 00:13:36;;;;;;;;;;;11.70;28.60;;;;;;5055807;28;19904;-70
2024/04/04 00:16:02;;;;;;;;;;;11.80;29.20;;;;;;5055654;28;19913;-72
2024/04/04 00:18:28;;;;;;;;;;;11.80;29.20;;;;;;5055591;28;19913;-71
2024/04/04 00:20:53;;;;;;;;;;;11.80;28.90;;;;;;5055758;28;20007;-71
2024/04/04 00:23:19;;;;;;;;;;;11.80;29.30;;;;;;5055743;28;19951;-71
2024/04/04 00:25:45;;;;;;;;;;;11.80;29.60;;;;;;5055662;28;19908;-71
2024/04/04 00:28:10;;;;;;;;;;;11.70;30.70;;;;;;5055270;28;19957;-71
2024/04/04 00:30:36;;;;;;;;;;;11.80;31.10;;;;;;5055583;28;20312;-71
2024/04/04 00:33:02;;;;;;;;;;;11.60;32.30;;;;;;5055533;28;20392;-71
2024/04/04 00:35:27;;;;;;;;;;;11.80;33.70;;;;;;5055501;28;19958;-71
2024/04/04 00:37:52;;;;;;;;;;;11.90;35.60;;;;;;5055082;28;19966;-71
2024/04/04 00:40:18;;;;;;;;;;;11.80;39.70;;;;;;5055378;28;20005;-71
2024/04/04 00:42:44;;;;;;;;;;;11.80;41.80;;;;;;5055331;28;19987;-71
2024/04/04 00:45:11;;;;;;;;;;;11.70;43.80;;;;;;5055270;28;19905;-71
2024/04/04 00:47:36;;;;;;;;;;;11.70;46.50;;;;;;5055099;28;19988;-71
2024/04/04 00:50:02;;;;;;;;;;;11.30;49.20;;;;;;5055142;28;19908;-71
2024/04/04 00:52:28;;;;;;;;;;;11.60;50.60;;;;;;5055177;28;19912;-71
2024/04/04 00:54:54;;;;;;;;;;;11.50;54.00;;;;;;5055142;28;19987;-71
2024/04/04 00:57:20;;;;;;;;;;;11.50;56.00;;;;;;5055056;28;20284;-71
2024/04/04 00:59:46;;;;;;;;;;;11.60;57.30;;;;;;5053459;28;19911;-71
2024/04/04 01:02:11;;;;;;;;;;;11.40;57.70;;;;;;5055034;28;19992;-70
2024/04/04 01:04:37;;;;;;;;;;;11.50;57.50;;;;;;5054925;28;20361;-70
2024/04/04 01:07:03;;;;;;;;;;;11.10;57.20;;;;;;5054943;28;19911;-71
2024/04/04 01:09:28;;;;;;;;;;;11.10;55.60;;;;;;5054663;28;19915;-71
2024/04/04 01:11:54;;;;;;;;;;;11.20;57.20;;;;;;5054847;28;20364;-71
2024/04/04 01:14:19;;;;;;;;;;;11.30;57.30;;;;;;5054752;28;19904;-71
2024/04/04 01:16:45;;;;;;;;;;;11.60;58.60;;;;;;5054464;28;20353;-70
2024/04/04 01:19:10;;;;;;;;;;;11.50;60.30;;;;;;5054374;28;19905;-71
2024/04/04 01:21:36;;;;;;;;;;;11.10;63.20;;;;;;5054671;28;20430;-71
2024/04/04 01:24:01;;;;;;;;;;;11.50;65.10;;;;;;5054568;28;19909;-70
2024/04/04 01:26:27;;;;;;;;;;;11.30;65.70;;;;;;5054520;28;20371;-70
2024/04/04 01:28:52;;;;;;;;;;;12.10;65.70;;;;;;5054205;28;20015;-69
2024/04/04 01:31:18;;;;;;;;;;;11.70;66.30;;;;;;5054428;28;19958;-69
2024/04/04 01:33:43;;;;;;;;;;;11.80;67.00;;;;;;5054323;28;19911;-70
2024/04/04 01:36:09;;;;;;;;;;;11.80;69.60;;;;;;5054319;28;20352;-69
2024/04/04 01:38:35;;;;;;;;;;;11.90;71.20;;;;;;5054075;28;19911;-70
2024/04/04 01:41:00;;;;;;;;;;;11.80;71.70;;;;;;5054367;28;19905;-70
2024/04/04 01:43:25;;;;;;;;;;;11.90;73.90;;;;;;5054183;28;19931;-70
2024/04/04 01:45:51;;;;;;;;;;;11.90;76.50;;;;;;5054274;28;19908;-70
2024/04/04 01:48:16;;;;;;;;;;;11.80;79.90;;;;;;5053764;28;19932;-70
2024/04/04 01:50:42;;;;;;;;;;;11.60;80.90;;;;;;5054072;28;19948;-70
2024/04/04 01:53:07;;;;;;;;;;;11.70;83.50;;;;;;5054037;28;19905;-70
2024/04/04 01:55:33;;;;;;;;;;;11.80;86.40;;;;;;5054023;28;20575;-71
2024/04/04 01:57:59;;;;;;;;;;;11.60;86.00;;;;;;5053698;28;19908;-71
2024/04/04 02:00:26;;;;;;;;;;;11.90;87.50;;;;;;5053847;28;19904;-71
2024/04/04 02:02:52;;;;;;;;;;;11.80;86.40;;;;;;5053829;28;19909;-70
2024/04/04 02:05:18;;;;;;;;;;;12.10;83.50;;;;;;5053768;28;19987;-70
2024/04/04 02:07:43;;;;;;;;;;;12.00;85.10;;;;;;5053564;28;20395;-69
2024/04/04 02:10:09;;;;;;;;;;;12.10;82.30;;;;;;5053588;28;19905;-69
2024/04/04 02:12:34;;;;;;;;;;;12.10;81.30;;;;;;5053670;28;19904;-70
2024/04/04 02:15:00;;;;;;;;;;;12.10;80.10;;;;;;5053655;28;19912;-69
2024/04/04 02:17:26;;;;;;;;;;;12.20;81.10;;;;;;5053389;28;20341;-69
2024/04/04 02:19:51;;;;;;;;;;;12.10;80.10;;;;;;5053237;28;20001;-69
2024/04/04 02:22:17;;;;;;;;;;;11.90;78.50;;;;;;5053463;28;19909;-69
2024/04/04 02:24:42;;;;;;;;;;;12.20;77.50;;;;;;5053417;28;19911;-69
2024/04/04 02:27:08;;;;;;;;;;;12.40;76.90;;;;;;5052843;28;19904;-69
2024/04/04 02:29:34;;;;;;;;;;;12.50;75.40;;;;;;5051839;28;19911;-69
2024/04/04 02:32:00;;;;;;;;;;;12.40;72.20;;;;;;5053298;28;19905;-69
2024/04/04 02:34:25;;;;;;;;;;;12.60;75.50;;;;;;5053175;28;20261;-69
2024/04/04 02:36:51;;;;;;;;;;;12.70;72.30;;;;;;5053238;28;20392;-69
2024/04/04 02:39:16;;;;;;;;;;;12.40;81.90;;;;;;5052808;28;20364;-69
2024/04/04 02:41:42;;;;;;;;;;;12.40;90.80;;;;;;5053118;28;19944;-69
2024/04/04 02:44:07;;;;;;;;;;;12.40;93.30;;;;;;5053029;28;19905;-71
2024/04/04 02:46:33;;;;;;;;;;;12.60;93.80;;;;;;5053094;28;19904;-70
2024/04/04 02:48:58;;;;;;;;;;;12.20;94.70;;;;;;5052647;28;19904;-71
2024/04/04 02:51:24;;;;;;;;;;;12.40;97.10;;;;;;5052954;28;19912;-71
2024/04/04 02:53:50;;;;;;;;;;;12.60;98.10;;;;;;5052904;28;19904;-71
2024/04/04 02:56:15;;;;;;;;;;;12.30;99.90;;;;;;5052794;28;19916;-71
2024/04/04 02:58:41;;;;;;;;;;;12.40;99.90;;;;;;5052530;28;19948;-70
2024/04/04 03:01:07;;;;;;;;;;;12.50;99.90;;;;;;5052810;28;20320;-71
2024/04/04 03:03:32;;;;;;;;;;;12.50;99.90;;;;;;5052772;28;20369;-71
2024/04/04 03:05:58;;;;;;;;;;;12.40;99.90;;;;;;5052725;28;19990;-71
2024/04/04 03:08:23;;;;;;;;;;;12.20;99.90;;;;;;5052340;28;19928;-70
2024/04/04 03:10:49;;;;;;;;;;;12.10;99.90;;;;;;5052656;28;19905;-70
2024/04/04 03:13:14;;;;;;;;;;;12.40;99.90;;;;;;5052653;28;19905;-70
2024/04/04 03:15:40;;;;;;;;;;;12.20;99.90;;;;;;5052580;28;19966;-71
2024/04/04 03:18:05;;;;;;;;;;;12.40;99.90;;;;;;5052171;28;19966;-71
2024/04/04 03:20:31;;;;;;;;;;;12.10;99.90;;;;;;5052489;28;20009;-72
2024/04/04 03:22:59;;;;;;;;;;;12.10;99.90;;;;;;5052452;28;19940;-71
2024/04/04 03:25:25;;;;;;;;;;;12.50;99.90;;;;;;5052387;28;19927;-69
2024/04/04 03:27:51;;;;;;;;;;;12.20;99.90;;;;;;5052258;28;19905;-69
2024/04/04 03:30:16;;;;;;;;;;;12.30;99.90;;;;;;5052186;28;19904;-70
2024/04/04 03:32:42;;;;;;;;;;;12.10;99.90;;;;;;5052700;28;20364;-69
2024/04/04 03:35:07;;;;;;;;;;;12.20;99.90;;;;;;5052292;28;20357;-70
2024/04/04 03:37:33;;;;;;;;;;;12.30;99.90;;;;;;5051949;28;19916;-71
2024/04/04 03:39:59;;;;;;;;;;;12.30;99.90;;;;;;5051610;28;20288;-71
2024/04/04 03:42:24;;;;;;;;;;;12.30;99.90;;;;;;5052128;28;20261;-71
2024/04/04 03:44:50;;;;;;;;;;;12.30;99.90;;;;;;5052161;28;19905;-70
2024/04/04 03:47:16;;;;;;;;;;;12.40;99.90;;;;;;5052119;28;20288;-71
2024/04/04 03:49:41;;;;;;;;;;;12.10;99.90;;;;;;5051818;28;19905;-71
2024/04/04 03:52:07;;;;;;;;;;;12.30;99.90;;;;;;5052093;28;20376;-71
2024/04/04 03:54:32;;;;;;;;;;;12.40;99.90;;;;;;5052087;28;19911;-69
2024/04/04 03:56:58;;;;;;;;;;;12.40;99.90;;;;;;5051952;28;20380;-70
2024/04/04 03:59:23;;;;;;;;;;;12.30;99.90;;;;;;5051712;28;19958;-69
2024/04/04 04:01:49;;;;;;;;;;;12.50;99.90;;;;;;5051971;28;19982;-69
2024/04/04 04:04:15;;;;;;;;;;;12.40;99.90;;;;;;5051986;28;19905;-69
2024/04/04 04:06:40;;;;;;;;;;;12.40;99.90;;;;;;5051893;28;19908;-70
2024/04/04 04:09:06;;;;;;;;;;;12.60;99.90;;;;;;5051689;28;20353;-69
2024/04/04 04:11:31;;;;;;;;;;;12.60;99.90;;;;;;5051930;28;19951;-69
2024/04/04 04:13:57;;;;;;;;;;;12.70;99.90;;;;;;5051859;28;19952;-69
2024/04/04 04:16:22;;;;;;;;;;;12.70;99.90;;;;;;5051603;28;19944;-69
2024/04/04 04:18:51;;;;;;;;;;;12.70;99.90;;;;;;5051572;28;19940;-69
2024/04/04 04:21:17;;;;;;;;;;;12.30;99.90;;;;;;5051729;28;20369;-69
2024/04/04 04:23:43;;;;;;;;;;;12.40;99.90;;;;;;5051820;28;19912;-69
2024/04/04 04:26:08;;;;;;;;;;;12.70;99.90;;;;;;5051769;28;19904;-69
2024/04/04 04:28:34;;;;;;;;;;;12.60;99.90;;;;;;5051450;28;20387;-69
2024/04/04 04:30:59;;;;;;;;;;;12.50;99.90;;;;;;5051697;28;19905;-69
2024/04/04 04:33:25;;;;;;;;;;;12.60;99.90;;;;;;5051645;28;20343;-69
2024/04/04 04:35:50;;;;;;;;;;;12.60;99.90;;;;;;5051625;28;19915;-69
2024/04/04 04:38:16;;;;;;;;;;;12.40;99.90;;;;;;5051324;28;19905;-69
2024/04/04 04:40:42;;;;;;;;;;;12.60;99.90;;;;;;5051650;28;19908;-69
2024/04/04 04:43:08;;;;;;;;;;;12.50;99.90;;;;;;5051598;28;19904;-70
2024/04/04 04:45:34;;;;;;;;;;;12.70;99.90;;;;;;5051577;28;19909;-70
2024/04/04 04:47:59;;;;;;;;;;;12.60;99.90;;;;;;5051355;28;19951;-69
2024/04/04 04:50:25;;;;;;;;;;;12.80;99.90;;;;;;5052532;28;20272;-69
2024/04/04 04:52:50;;;;;;;;;;;12.60;99.90;;;;;;5055191;28;19996;-69
2024/04/04 04:55:16;;;;;;;;;;;12.80;99.90;;;;;;5055160;28;19950;-69
2024/04/04 04:57:41;;;;;;;;;;;12.80;99.90;;;;;;5054871;28;19909;-69
2024/04/04 05:00:12;;;;;;;;;;;12.60;99.90;;;;;;5055034;28;19955;-69
2024/04/04 05:02:38;;;;;;;;;;;12.60;99.90;;;;;;5054960;28;19905;-68
2024/04/04 05:05:13;;;;;;;;;;;12.70;99.90;;;;;;5055084;28;20357;-69
2024/04/04 05:07:39;;;;;;;;;;;12.80;99.90;;;;;;5054729;28;19954;-69
2024/04/04 05:10:05;;;;;;;;;;;13.00;99.90;;;;;;5054851;28;19940;-69
2024/04/04 05:12:30;;;;;;;;;;;12.10;99.90;;;;;;5054835;28;19913;-69
2024/04/04 05:14:56;;;;;;;;;;;13.00;99.90;;;;;;5054809;28;19904;-69
2024/04/04 05:17:21;;;;;;;;;;;13.10;99.90;;;;;;5054536;28;20377;-68
2024/04/04 05:19:47;;;;;;;;;;;12.90;99.90;;;;;;5054487;28;19950;-69
2024/04/04 05:22:12;;;;;;;;;;;13.00;99.90;;;;;;5054661;28;19905;-69
2024/04/04 05:24:37;;;;;;;;;;;13.00;99.90;;;;;;5054577;28;19913;-70
2024/04/04 05:27:03;;;;;;;;;;;13.00;99.90;;;;;;5054593;28;19911;-70
2024/04/04 05:29:29;;;;;;;;;;;13.00;99.90;;;;;;5054272;28;19905;-69
2024/04/04 05:31:54;;;;;;;;;;;13.20;99.90;;;;;;5054565;28;19905;-70
2024/04/04 05:34:21;;;;;;;;;;;13.00;99.90;;;;;;5054423;28;19966;-69
2024/04/04 05:36:46;;;;;;;;;;;12.90;99.90;;;;;;5054540;28;19909;-70
2024/04/04 05:39:12;;;;;;;;;;;13.00;99.90;;;;;;5054454;28;19905;-70
2024/04/04 05:41:37;;;;;;;;;;;13.00;99.90;;;;;;5054475;28;19968;-70
2024/04/04 05:44:03;;;;;;;;;;;13.10;99.90;;;;;;5054338;28;19932;-71
2024/04/04 05:46:30;;;;;;;;;;;13.20;99.90;;;;;;5054163;28;19905;-70
2024/04/04 05:48:56;;;;;;;;;;;13.10;99.90;;;;;;5054061;28;19911;-70
2024/04/04 05:51:23;;;;;;;;;;;13.00;99.90;;;;;;5054037;28;20011;-70
2024/04/04 05:53:49;;;;;;;;;;;12.90;99.90;;;;;;5054045;28;19905;-69
2024/04/04 05:56:15;;;;;;;;;;;12.90;99.90;;;;;;5054202;28;20383;-69
2024/04/04 05:58:41;;;;;;;;;;;13.00;99.90;;;;;;5053635;28;19909;-70
2024/04/04 06:01:06;;;;;;;;;;;13.00;99.90;;;;;;5053776;28;19904;-69
2024/04/04 06:03:32;;;;;;;;;;;12.80;99.90;;;;;;5053234;28;19912;-69
2024/04/04 06:05:57;;;;;;;;;;;12.70;99.90;;;;;;5053839;28;19905;-69
2024/04/04 06:08:23;;;;;;;;;;;12.60;99.90;;;;;;5053496;28;19909;-70
2024/04/04 06:10:48;;;;;;;;;;;12.80;99.90;;;;;;5053660;28;19905;-69
2024/04/04 06:13:14;;;;;;;;;;;13.00;99.90;;;;;;5053684;28;19942;-69
2024/04/04 06:15:41;;;;;;;;;;;13.00;99.90;;;;;;5053675;28;19905;-69
2024/04/04 06:18:06;;;;;;;;;;;12.80;99.90;;;;;;5053214;28;19920;-69
2024/04/04 06:20:32;;;;;;;;;;;12.90;99.90;;;;;;5053422;28;19904;-69
2024/04/04 06:22:57;;;;;;;;;;;12.80;99.90;;;;;;5053480;28;19904;-69
2024/04/04 06:25:23;;;;;;;;;;;12.90;99.90;;;;;;5053385;28;19912;-70
2024/04/04 06:27:51;;;;;;;;;;;13.10;99.90;;;;;;5053189;28;19996;-70
2024/04/04 06:30:16;;;;;;;;;;;12.90;99.90;;;;;;5053286;28;19958;-69
2024/04/04 06:32:42;;;;;;;;;;;12.80;99.90;;;;;;5053356;28;19909;-69
2024/04/04 06:35:07;;;;;;;;;;;13.10;99.90;;;;;;5053263;28;19911;-70
2024/04/04 06:37:33;;;;;;;;;;;13.00;99.90;;;;;;5052921;28;19908;-69
2024/04/04 06:39:58;;;;;;;;;;;13.00;99.90;;;;;;5053116;28;19912;-70
2024/04/04 06:42:24;;;;;;;;;;;13.00;99.90;;;;;;5053146;28;19905;-70
2024/04/04 06:44:49;;;;;;;;;;;13.00;99.90;;;;;;5053067;28;19905;-69
2024/04/04 06:47:15;;;;;;;;;;;12.80;99.90;;;;;;5053116;28;19911;-69
2024/04/04 06:49:40;;;;;;;;;;;12.80;99.90;;;;;;5052703;28;19917;-69
2024/04/04 06:52:06;;;;;;;;;;;12.70;99.90;;;;;;5052954;28;19945;-69
2024/04/04 06:54:31;;;;;;;;;;;12.60;99.90;;;;;;5052804;28;19905;-70
2024/04/04 06:56:57;;;;;;;;;;;12.80;99.90;;;;;;5053037;28;19909;-69
2024/04/04 06:59:22;;;;;;;;;;;12.60;99.90;;;;;;5052527;28;19909;-69
2024/04/04 07:01:48;;;;;;;;;;;12.50;99.90;;;;;;5052752;28;19909;-70
2024/04/04 07:04:13;;;;;;;;;;;12.70;99.90;;;;;;5052651;28;19905;-69
2024/04/04 07:06:39;;;;;;;;;;;12.60;99.90;;;;;;5052633;28;19912;-69
2024/04/04 07:09:06;;;;;;;;;;;12.40;99.90;;;;;;5052284;28;19908;-68
2024/04/04 07:11:32;;;;;;;;;;;12.70;99.90;;;;;;5052750;28;19947;-68
2024/04/04 07:13:57;;;;;;;;;;;12.70;99.90;;;;;;5052365;28;20292;-68
2024/04/04 07:16:23;;;;;;;;;;;12.80;99.90;;;;;;5052355;28;19916;-69
2024/04/04 07:18:48;;;;;;;;;;;12.60;99.90;;;;;;5052151;28;19905;-68
2024/04/04 07:21:14;;;;;;;;;;;12.80;99.90;;;;;;5052489;28;20000;-68
2024/04/04 07:23:39;;;;;;;;;;;12.50;99.90;;;;;;5052327;28;19909;-69
2024/04/04 07:26:05;;;;;;;;;;;12.60;99.90;;;;;;5052383;28;19911;-68
2024/04/04 07:28:30;;;;;;;;;;;12.80;99.90;;;;;;5052075;28;20277;-69
2024/04/04 07:30:56;;;;;;;;;;;12.70;99.90;;;;;;5052306;28;19904;-68
2024/04/04 07:33:21;;;;;;;;;;;12.80;99.90;;;;;;5052253;28;19912;-69
2024/04/04 07:35:47;;;;;;;;;;;13.00;99.90;;;;;;5052233;28;19912;-69
2024/04/04 07:38:13;;;;;;;;;;;12.80;99.90;;;;;;5051816;28;19909;-70
2024/04/04 07:40:39;;;;;;;;;;;12.80;99.90;;;;;;5052909;28;19911;-70
2024/04/04 07:43:06;;;;;;;;;;;12.70;99.90;;;;;;5052160;28;20376;-74
2024/04/04 07:45:35;;;;;;;;;;;12.60;99.90;;;;;;5053083;28;20283;-73
2024/04/04 07:48:01;;;;;;;;;;;12.50;99.90;;;;;;5052176;28;19908;-72
2024/04/04 07:50:27;;;;;;;;;;;12.40;99.90;;;;;;5053339;28;19928;-71
2024/04/04 07:52:53;;;;;;;;;;;12.10;99.90;;;;;;5054027;28;20011;-71
2024/04/04 07:55:18;;;;;;;;;;;12.20;99.90;;;;;;5053523;28;19919;-69
2024/04/04 07:57:44;;;;;;;;;;;12.10;99.90;;;;;;5053648;28;19969;-71
2024/04/04 08:00:11;;;;;;;;;;;11.90;99.90;;;;;;5054701;28;20292;-70
2024/04/04 08:02:36;;;;;;;;;;;11.60;99.90;;;;;;5056363;28;19927;-70
2024/04/04 08:05:04;;;;;;;;;;;11.90;99.90;;;;;;5054024;28;19991;-70
2024/04/04 08:07:35;;;;;;;;;;;12.00;99.90;;;;;;5054445;28;19905;-68
2024/04/04 08:10:08;;;;;;;;;;;11.90;99.90;;;;;;5054877;28;19908;-68
2024/04/04 08:12:35;;;;;;;;;;;11.80;99.90;;;;;;5055497;28;19959;-67
2024/04/04 08:15:03;;;;;;;;;;;11.80;99.90;;;;;;5055550;28;19904;-69
2024/04/04 08:17:29;;;;;;;;;;;11.50;99.90;;;;;;5054011;28;19913;-68
2024/04/04 08:19:55;;;;;;;;;;;11.80;99.90;;;;;;5053385;28;19950;-69
2024/04/04 08:22:20;;;;;;;;;;;11.90;99.90;;;;;;5053519;28;19905;-68
2024/04/04 08:24:46;;;;;;;;;;;11.50;99.90;;;;;;5053646;28;20289;-68
2024/04/04 08:27:11;;;;;;;;;;;11.90;99.90;;;;;;5057623;28;19905;-69
2024/04/04 08:29:37;;;;;;;;;;;12.00;99.90;;;;;;5057473;28;20374;-69
2024/04/04 08:32:03;;;;;;;;;;;12.00;99.90;;;;;;5058598;28;19912;-68
2024/04/04 08:34:30;;;;;;;;;;;11.90;99.90;;;;;;5059526;28;19931;-69
2024/04/04 08:36:56;;;;;;;;;;;12.10;99.90;;;;;;5060249;28;20331;-69
2024/04/04 08:39:21;;;;;;;;;;;12.20;99.90;;;;;;5059691;28;19911;-69
2024/04/04 08:41:47;;;;;;;;;;;12.20;99.90;;;;;;5059545;28;19909;-69
2024/04/04 08:44:13;;;;;;;;;;;12.20;99.90;;;;;;5058702;28;19909;-69
2024/04/04 08:46:39;;;;;;;;;;;12.30;99.90;;;;;;5059448;28;19988;-69
2024/04/04 08:49:06;;;;;;;;;;;12.30;99.90;;;;;;5058199;28;19908;-69
2024/04/04 08:51:32;;;;;;;;;;;12.30;99.90;;;;;;5058128;28;19932;-69
2024/04/04 08:53:57;;;;;;;;;;;12.50;99.90;;;;;;5058262;28;19905;-68
2024/04/04 08:56:23;;;;;;;;;;;12.30;99.90;;;;;;5058610;28;19909;-69
2024/04/04 08:58:49;;;;;;;;;;;12.70;99.90;;;;;;5057336;28;19904;-69
2024/04/04 09:01:14;;;;;;;;;;;12.80;99.90;;;;;;5057811;28;19904;-69
2024/04/04 09:03:43;;;;;;;;;;;12.60;99.90;;;;;;5057053;28;19955;-69
2024/04/04 09:06:08;;;;;;;;;;;12.60;99.90;;;;;;5057484;28;19905;-69
2024/04/04 09:08:37;;;;;;;;;;;12.80;99.90;;;;;;5056529;28;20007;-69
2024/04/04 09:11:03;;;;;;;;;;;12.60;99.90;;;;;;5056351;28;19912;-69
2024/04/04 09:13:29;;;;;;;;;;;12.70;99.90;;;;;;5056694;28;19904;-69
2024/04/04 09:15:59;;;;;;;;;;;13.20;99.90;;;;;;5056001;28;19911;-70
2024/04/04 09:18:24;;;;;;;;;;;13.10;99.90;;;;;;5055755;28;19986;-69
2024/04/04 09:20:50;;;;;;;;;;;13.30;99.90;;;;;;5056074;28;19905;-69
2024/04/04 09:23:15;;;;;;;;;;;13.40;99.90;;;;;;5055824;28;19945;-70
2024/04/04 09:25:41;;;;;;;;;;;13.60;99.90;;;;;;5055615;28;19932;-69
2024/04/04 09:28:11;;;;;;;;;;;13.80;99.90;;;;;;5055717;28;19905;-69
2024/04/04 09:30:36;;;;;;;;;;;13.80;97.20;;;;;;5055966;28;19912;-69
2024/04/04 09:33:05;;;;;;;;;;;13.90;97.50;;;;;;5055354;28;19905;-69
2024/04/04 09:35:30;;;;;;;;;;;14.10;91.60;;;;;;5055530;28;19911;-69
2024/04/04 09:37:56;;;;;;;;;;;14.10;85.80;;;;;;5053588;28;19908;-69
2024/04/04 09:40:22;;;;;;;;;;;14.30;87.10;;;;;;5055511;28;19905;-69
2024/04/04 09:42:47;;;;;;;;;;;14.30;82.70;;;;;;5055374;28;19912;-69
2024/04/04 09:45:13;;;;;;;;;;;14.40;68.90;;;;;;5055141;28;20273;-70
2024/04/04 09:47:44;;;;;;;;;;;14.30;61.80;;;;;;5055042;28;19909;-69
2024/04/04 09:50:10;;;;;;;;;;;14.30;65.50;;;;;;5055109;28;19936;-69
2024/04/04 09:52:37;;;;;;;;;;;14.30;63.20;;;;;;5054918;28;20514;-69
2024/04/04 09:55:13;;;;;;;;;;;14.40;66.00;;;;;;5055076;28;19908;-69
2024/04/04 09:57:39;;;;;;;;;;;14.30;51.70;;;;;;5054659;28;19915;-69
2024/04/04 10:00:15;;;;;;;;;;;14.40;64.20;;;;;;5054790;28;19905;-69
2024/04/04 10:02:46;;;;;;;;;;;14.10;55.90;;;;;;5055199;28;19912;-69
2024/04/04 10:05:15;;;;;;;;;;;14.30;52.90;;;;;;5054724;28;20455;-69
2024/04/04 10:07:41;;;;;;;;;;;14.30;55.10;;;;;;5054900;28;19908;-70
2024/04/04 10:10:13;;;;;;;;;;;14.40;62.40;;;;;;5054704;28;19961;-70
2024/04/04 10:12:52;;;;;;;;;;;14.40;54.00;;;;;;5054445;28;20316;-69
2024/04/04 10:15:18;;;;;;;;;;;14.20;53.90;;;;;;5054382;28;19947;-69
2024/04/04 10:17:45;;;;;;;;;;;14.20;59.30;;;;;;5054253;28;19935;-69
2024/04/04 10:20:11;;;;;;;;;;;14.30;69.60;;;;;;5054346;28;19916;-69
2024/04/04 10:22:36;;;;;;;;;;;14.20;76.30;;;;;;5054699;28;19912;-70
2024/04/04 10:25:03;;;;;;;;;;;14.20;69.00;;;;;;5054557;28;19905;-70
2024/04/04 10:27:28;;;;;;;;;;;14.30;73.30;;;;;;5054241;28;20293;-70
2024/04/04 10:29:54;;;;;;;;;;;14.20;71.40;;;;;;5054244;28;19912;-70
2024/04/04 10:32:20;;;;;;;;;;;14.40;68.10;;;;;;5054153;28;19937;-70
2024/04/04 10:34:46;;;;;;;;;;;14.40;66.10;;;;;;5054327;28;19995;-70
2024/04/04 10:37:14;;;;;;;;;;;14.40;62.70;;;;;;5054162;28;20028;-70
2024/04/04 10:39:40;;;;;;;;;;;14.50;60.80;;;;;;5053898;28;19911;-70
2024/04/04 10:42:06;;;;;;;;;;;14.40;61.90;;;;;;5053925;28;19905;-70
2024/04/04 10:44:32;;;;;;;;;;;14.50;66.50;;;;;;5053858;28;19909;-70
2024/04/04 10:46:57;;;;;;;;;;;14.60;66.10;;;;;;5053466;28;20283;-70
2024/04/04 10:49:23;;;;;;;;;;;14.40;60.10;;;;;;5052650;28;20005;-71
2024/04/04 10:51:51;;;;;;;;;;;14.30;64.80;;;;;;5053453;28;19905;-71
2024/04/04 10:54:17;;;;;;;;;;;14.40;64.60;;;;;;5053386;28;20011;-70
2024/04/04 10:56:42;;;;;;;;;;;14.50;63.60;;;;;;5053428;28;19991;-70
2024/04/04 10:59:09;;;;;;;;;;;14.20;68.90;;;;;;5052705;28;19905;-70
2024/04/04 11:01:35;;;;;;;;;;;14.50;65.30;;;;;;5052824;28;19909;-70
2024/04/04 11:04:00;;;;;;;;;;;14.50;72.20;;;;;;5052790;28;19908;-70
2024/04/04 11:06:27;;;;;;;;;;;14.30;92.00;;;;;;5052716;28;19905;-69
2024/04/04 11:08:54;;;;;;;;;;;13.80;98.80;;;;;;5052352;28;19905;-69
2024/04/04 11:11:21;;;;;;;;;;;13.10;99.90;;;;;;5052643;28;19904;-67
2024/04/04 11:13:47;;;;;;;;;;;12.60;99.90;;;;;;5052570;28;19928;-68
2024/04/04 11:16:13;;;;;;;;;;;12.10;99.90;;;;;;5052515;28;19952;-68
2024/04/04 11:18:38;;;;;;;;;;;11.90;99.90;;;;;;5052257;28;20329;-69
2024/04/04 11:21:05;;;;;;;;;;;11.40;99.90;;;;;;5052625;28;19944;-69
2024/04/04 11:23:31;;;;;;;;;;;10.90;99.90;;;;;;5053344;28;19908;-69
2024/04/04 11:25:56;;;;;;;;;;;11.00;99.90;;;;;;5052795;28;19911;-70
2024/04/04 11:28:22;;;;;;;;;;;10.40;99.90;;;;;;5054062;28;20426;-69
2024/04/04 11:30:48;;;;;;;;;;;10.60;99.90;;;;;;5054271;28;19958;-70
2024/04/04 11:33:13;;;;;;;;;;;10.70;99.90;;;;;;5053289;28;20499;-70
2024/04/04 11:35:39;;;;;;;;;;;10.60;99.90;;;;;;5053358;28;19911;-70
2024/04/04 11:38:04;;;;;;;;;;;10.70;99.90;;;;;;5052463;28;20261;-70
2024/04/04 11:40:30;;;;;;;;;;;10.70;99.90;;;;;;5054376;28;19908;-68
2024/04/04 11:42:55;;;;;;;;;;;10.80;99.90;;;;;;5053002;28;20001;-70
2024/04/04 11:45:21;;;;;;;;;;;10.90;99.90;;;;;;5054758;28;19904;-70
2024/04/04 11:47:47;;;;;;;;;;;11.00;99.90;;;;;;5054621;28;19912;-68
2024/04/04 11:50:13;;;;;;;;;;;11.10;99.90;;;;;;5052511;28;19916;-69
2024/04/04 11:52:39;;;;;;;;;;;11.10;99.90;;;;;;5052357;28;19909;-68
2024/04/04 11:55:04;;;;;;;;;;;11.30;99.90;;;;;;5052504;28;19948;-68
2024/04/04 11:57:30;;;;;;;;;;;10.90;99.90;;;;;;5052415;28;20440;-68
2024/04/04 11:59:55;;;;;;;;;;;11.40;99.90;;;;;;5052330;28;20357;-69
2024/04/04 12:02:21;;;;;;;;;;;11.00;99.90;;;;;;5056234;28;19908;-68
2024/04/04 12:04:46;;;;;;;;;;;11.50;99.90;;;;;;5056117;28;20361;-69
2024/04/04 12:07:13;;;;;;;;;;;11.30;99.90;;;;;;5056061;28;19920;-69
2024/04/04 12:09:39;;;;;;;;;;;11.10;99.90;;;;;;5056081;28;20292;-69
2024/04/04 12:12:05;;;;;;;;;;;11.10;99.90;;;;;;5056062;28;19905;-68
2024/04/04 12:14:30;;;;;;;;;;;10.60;99.90;;;;;;5056074;28;19955;-69
2024/04/04 12:16:56;;;;;;;;;;;10.90;99.90;;;;;;5055402;28;20008;-69
2024/04/04 12:19:27;;;;;;;;;;;10.80;99.90;;;;;;5054329;28;20334;-69
2024/04/04 12:21:56;;;;;;;;;;;10.40;99.90;;;;;;5054943;28;19905;-69
2024/04/04 12:24:22;;;;;;;;;;;10.30;99.90;;;;;;5054502;28;19904;-69
2024/04/04 12:26:48;;;;;;;;;;;10.70;99.90;;;;;;5054439;28;20365;-69
2024/04/04 12:29:16;;;;;;;;;;;10.80;99.90;;;;;;5054195;28;19912;-69
2024/04/04 12:31:45;;;;;;;;;;;10.90;99.90;;;;;;5054354;28;19905;-69
2024/04/04 12:34:10;;;;;;;;;;;11.00;99.90;;;;;;5054215;28;19909;-69
2024/04/04 12:36:36;;;;;;;;;;;11.10;99.90;;;;;;5054180;28;19978;-69
2024/04/04 12:39:03;;;;;;;;;;;11.30;99.90;;;;;;5053898;28;20266;-69
2024/04/04 12:41:28;;;;;;;;;;;11.40;99.90;;;;;;5054127;28;19996;-69
2024/04/04 12:43:54;;;;;;;;;;;12.20;99.90;;;;;;5054088;28;19955;-69
2024/04/04 12:46:19;;;;;;;;;;;13.10;99.90;;;;;;5054138;28;19908;-68
2024/04/04 12:48:46;;;;;;;;;;;13.90;99.90;;;;;;5053694;28;19904;-68
2024/04/04 12:51:12;;;;;;;;;;;15.00;99.90;;;;;;5054239;28;19905;-68
2024/04/04 12:53:37;;;;;;;;;;;15.90;55.90;;;;;;5053932;28;20277;-68
2024/04/04 12:56:04;;;;;;;;;;;16.50;35.00;;;;;;5053905;28;20495;-68
2024/04/04 12:58:30;;;;;;;;;;;17.00;25.60;;;;;;5053615;28;20394;-68
2024/04/04 13:00:59;;;;;;;;;;;17.40;21.70;;;;;;5053937;28;19905;-68
2024/04/04 13:03:27;;;;;;;;;;;17.60;19.10;;;;;;5053736;28;20007;-68
2024/04/04 13:05:56;;;;;;;;;;;18.00;11.70;;;;;;5053816;28;19928;-68
2024/04/04 13:08:21;;;;;;;;;;;18.50;4.20;;;;;;5053464;28;19962;-68
2024/04/04 13:10:47;;;;;;;;;;;19.00;5.10;;;;;;5053439;28;19955;-67
2024/04/04 13:13:12;;;;;;;;;;;19.10;4.80;;;;;;5053653;28;19905;-67
2024/04/04 13:15:38;;;;;;;;;;;19.40;1.00;;;;;;5053625;28;20042;-67
2024/04/04 13:18:04;;;;;;;;;;;19.70;1.00;;;;;;5015584;28;1114643;-69
2024/04/04 13:20:29;;;;;;;;;;;19.90;1.00;;;;;;5054619;28;19904;-67
2024/04/04 13:22:55;;;;;;;;;;;20.20;1.00;;;;;;5054717;28;19946;-67
2024/04/04 13:25:20;;;;;;;;;;;20.40;1.00;;;;;;5054671;28;19905;-69
2024/04/04 13:27:46;;;;;;;;;;;20.40;1.00;;;;;;5054419;28;20361;-68
2024/04/04 13:30:11;;;;;;;;;;;20.40;1.00;;;;;;5054492;28;19919;-68
2024/04/04 13:32:37;;;;;;;;;;;20.20;1.00;;;;;;5054434;28;20365;-68
2024/04/04 13:35:03;;;;;;;;;;;20.20;1.00;;;;;;5054397;28;19912;-69
2024/04/04 13:37:28;;;;;;;;;;;20.50;1.00;;;;;;5054292;28;19954;-68
2024/04/04 13:39:54;;;;;;;;;;;20.80;1.00;;;;;;5054252;28;19905;-67
2024/04/04 13:42:21;;;;;;;;;;;20.90;1.00;;;;;;5054279;28;19916;-67
2024/04/04 13:44:50;;;;;;;;;;;21.00;1.00;;;;;;5054296;28;19905;-68
2024/04/04 13:47:15;;;;;;;;;;;20.70;1.00;;;;;;5054186;28;19928;-67
2024/04/04 13:49:41;;;;;;;;;;;20.80;1.00;;;;;;5053906;28;19905;-67
2024/04/04 13:52:06;;;;;;;;;;;20.90;1.00;;;;;;5054197;28;19905;-69
2024/04/04 13:54:32;;;;;;;;;;;21.20;1.00;;;;;;5054034;28;19948;-67
2024/04/04 13:56:57;;;;;;;;;;;21.20;1.00;;;;;;5054038;28;19909;-67
2024/04/04 13:59:23;;;;;;;;;;;20.80;1.00;;;;;;5053693;28;19905;-68
2024/04/04 14:01:49;;;;;;;;;;;20.50;1.00;;;;;;5053954;28;19908;-67
2024/04/04 14:04:14;;;;;;;;;;;20.30;1.00;;;;;;5053896;28;20004;-69
2024/04/04 14:06:43;;;;;;;;;;;21.00;1.00;;;;;;5053857;28;19970;-67
2024/04/04 14:09:09;;;;;;;;;;;21.30;1.00;;;;;;5053524;28;20369;-69
2024/04/04 14:11:34;;;;;;;;;;;21.70;1.00;;;;;;5053731;28;19959;-66